sensor_id;sensor_type;location;lat;lon;timestamp;pressure;altitude;pressure_sealevel;temperature;humidity
73952;BME280;62304;47.662;18.324;2023-03-03T00:00:54;100561.41;;;1.16;80.62
73952;BME280;62304;47.662;18.324;2023-03-03T00:03:58;100564.44;;;1.14;81.73
73952;BME280;62304;47.662;18.324;2023-03-03T00:07:01;100562.28;;;0.98;82.16
73952;BME280;62304;47.662;18.324;2023-03-03T00:10:04;100555.53;;;1.09;81.84
73952;BME280;62304;47.662;18.324;2023-03-03T00:13:20;100561.50;;;0.97;81.12
73952;BME280;62304;47.662;18.324;2023-03-03T00:16:37;100560.69;;;1.10;81.65
73952;BME280;62304;47.662;18.324;2023-03-03T00:19:40;100555.44;;;1.27;81.41
73952;BME280;62304;47.662;18.324;2023-03-03T00:22:43;100558.47;;;1.26;80.80
73952;BME280;62304;47.662;18.324;2023-03-03T00:25:49;100558.78;;;1.11;80.27
73952;BME280;62304;47.662;18.324;2023-03-03T00:28:53;100553.31;;;1.24;80.56
73952;BME280;62304;47.662;18.324;2023-03-03T00:35:26;100548.53;;;0.89;81.11
73952;BME280;62304;47.662;18.324;2023-03-03T00:38:33;100546.41;;;0.86;82.46
73952;BME280;62304;47.662;18.324;2023-03-03T00:41:38;100545.41;;;0.96;81.74
73952;BME280;62304;47.662;18.324;2023-03-03T00:44:42;100543.78;;;0.95;82.68
73952;BME280;62304;47.662;18.324;2023-03-03T00:47:45;100538.44;;;0.90;82.52
73952;BME280;62304;47.662;18.324;2023-03-03T00:50:49;100542.75;;;0.77;83.26
73952;BME280;62304;47.662;18.324;2023-03-03T00:53:53;100537.34;;;0.59;83.73
73952;BME280;62304;47.662;18.324;2023-03-03T00:56:56;100533.06;;;0.85;82.37
73952;BME280;62304;47.662;18.324;2023-03-03T00:59:59;100528.41;;;0.85;82.63
73952;BME280;62304;47.662;18.324;2023-03-03T01:03:06;100528.41;;;0.85;82.31
73952;BME280;62304;47.662;18.324;2023-03-03T01:06:10;100525.16;;;0.83;82.13
73952;BME280;62304;47.662;18.324;2023-03-03T01:09:13;100512.63;;;0.69;82.85
73952;BME280;62304;47.662;18.324;2023-03-03T01:12:16;100519.38;;;0.71;83.79
73952;BME280;62304;47.662;18.324;2023-03-03T01:15:19;100505.72;;;0.58;83.33
73952;BME280;62304;47.662;18.324;2023-03-03T01:18:22;100508.94;;;0.60;84.29
73952;BME280;62304;47.662;18.324;2023-03-03T01:21:25;100500.97;;;0.50;85.24
73952;BME280;62304;47.662;18.324;2023-03-03T01:24:28;100506.53;;;0.58;84.98
73952;BME280;62304;47.662;18.324;2023-03-03T01:27:31;100503.78;;;0.45;85.84
73952;BME280;62304;47.662;18.324;2023-03-03T01:30:36;100507.09;;;0.42;86.26
73952;BME280;62304;47.662;18.324;2023-03-03T01:33:39;100508.56;;;0.66;85.03
73952;BME280;62304;47.662;18.324;2023-03-03T01:36:42;100509.59;;;0.70;84.13
73952;BME280;62304;47.662;18.324;2023-03-03T01:39:49;100502.59;;;0.64;83.95
73952;BME280;62304;47.662;18.324;2023-03-03T01:42:53;100504.72;;;0.67;84.12
73952;BME280;62304;47.662;18.324;2023-03-03T01:49:03;100491.91;;;0.95;83.80
73952;BME280;62304;47.662;18.324;2023-03-03T01:55:36;100499.47;;;0.98;82.59
73952;BME280;62304;47.662;18.324;2023-03-03T01:58:44;100490.78;;;0.82;82.51
73952;BME280;62304;47.662;18.324;2023-03-03T02:01:48;100497.25;;;0.59;83.87
73952;BME280;62304;47.662;18.324;2023-03-03T02:04:52;100483.50;;;0.64;83.18
73952;BME280;62304;47.662;18.324;2023-03-03T02:07:55;100486.44;;;0.68;83.93
73952;BME280;62304;47.662;18.324;2023-03-03T02:10:58;100489.38;;;0.71;84.25
73952;BME280;62304;47.662;18.324;2023-03-03T02:14:02;100486.22;;;0.64;84.36
73952;BME280;62304;47.662;18.324;2023-03-03T02:17:05;100477.03;;;0.60;84.43
73952;BME280;62304;47.662;18.324;2023-03-03T02:23:33;100475.53;;;0.95;83.54
73952;BME280;62304;47.662;18.324;2023-03-03T02:26:39;100477.34;;;0.99;83.02
73952;BME280;62304;47.662;18.324;2023-03-03T02:29:42;100485.53;;;0.72;83.18
73952;BME280;62304;47.662;18.324;2023-03-03T02:32:46;100467.72;;;0.61;84.62
73952;BME280;62304;47.662;18.324;2023-03-03T02:35:49;100470.84;;;0.68;84.22
73952;BME280;62304;47.662;18.324;2023-03-03T02:39:08;100466.12;;;0.87;83.51
73952;BME280;62304;47.662;18.324;2023-03-03T02:42:36;100463.00;;;1.07;83.03
73952;BME280;62304;47.662;18.324;2023-03-03T02:45:43;100463.09;;;1.02;82.53
73952;BME280;62304;47.662;18.324;2023-03-03T02:48:46;100457.75;;;0.97;82.31
73952;BME280;62304;47.662;18.324;2023-03-03T02:51:49;100463.87;;;0.89;82.84
73952;BME280;62304;47.662;18.324;2023-03-03T02:54:52;100451.66;;;0.87;83.33
73952;BME280;62304;47.662;18.324;2023-03-03T02:57:56;100464.41;;;1.18;82.33
73952;BME280;62304;47.662;18.324;2023-03-03T03:00:59;100462.53;;;1.27;80.85
73952;BME280;62304;47.662;18.324;2023-03-03T03:04:18;100447.53;;;1.38;81.96
73952;BME280;62304;47.662;18.324;2023-03-03T03:07:22;100457.37;;;1.26;80.90
73952;BME280;62304;47.662;18.324;2023-03-03T03:10:26;100449.50;;;1.24;80.65
73952;BME280;62304;47.662;18.324;2023-03-03T03:13:28;100446.78;;;1.24;82.49
73952;BME280;62304;47.662;18.324;2023-03-03T03:16:33;100448.69;;;1.24;83.21
73952;BME280;62304;47.662;18.324;2023-03-03T03:19:36;100444.25;;;1.28;82.69
73952;BME280;62304;47.662;18.324;2023-03-03T03:22:39;100441.44;;;1.19;82.94
73952;BME280;62304;47.662;18.324;2023-03-03T03:25:42;100432.94;;;1.07;83.20
73952;BME280;62304;47.662;18.324;2023-03-03T03:28:50;100439.59;;;1.01;84.42
73952;BME280;62304;47.662;18.324;2023-03-03T03:31:53;100436.78;;;1.06;84.93
73952;BME280;62304;47.662;18.324;2023-03-03T03:34:56;100430.69;;;1.23;83.65
73952;BME280;62304;47.662;18.324;2023-03-03T03:37:59;100432.31;;;1.24;83.18
73952;BME280;62304;47.662;18.324;2023-03-03T03:41:03;100431.47;;;1.23;83.42
73952;BME280;62304;47.662;18.324;2023-03-03T03:44:06;100425.16;;;1.50;83.00
73952;BME280;62304;47.662;18.324;2023-03-03T03:47:10;100423.47;;;1.40;82.87
73952;BME280;62304;47.662;18.324;2023-03-03T03:50:13;100428.41;;;1.38;82.53
73952;BME280;62304;47.662;18.324;2023-03-03T03:53:17;100422.72;;;1.48;81.77
73952;BME280;62304;47.662;18.324;2023-03-03T03:56:20;100426.47;;;1.52;81.92
73952;BME280;62304;47.662;18.324;2023-03-03T03:59:24;100429.16;;;1.30;82.57
73952;BME280;62304;47.662;18.324;2023-03-03T04:02:27;100425.50;;;1.35;82.79
73952;BME280;62304;47.662;18.324;2023-03-03T04:05:31;100425.69;;;1.38;82.91
73952;BME280;62304;47.662;18.324;2023-03-03T04:08:34;100434.50;;;1.35;83.56
73952;BME280;62304;47.662;18.324;2023-03-03T04:11:38;100428.41;;;1.38;84.52
73952;BME280;62304;47.662;18.324;2023-03-03T04:14:40;100425.47;;;1.48;84.35
73952;BME280;62304;47.662;18.324;2023-03-03T04:17:44;100430.31;;;1.51;84.62
73952;BME280;62304;47.662;18.324;2023-03-03T04:20:46;100420.63;;;1.67;84.18
73952;BME280;62304;47.662;18.324;2023-03-03T04:23:50;100424.88;;;1.73;83.72
73952;BME280;62304;47.662;18.324;2023-03-03T04:26:54;100425.06;;;1.77;83.40
73952;BME280;62304;47.662;18.324;2023-03-03T04:29:57;100427.97;;;1.80;83.62
73952;BME280;62304;47.662;18.324;2023-03-03T04:33:00;100422.00;;;1.78;83.06
73952;BME280;62304;47.662;18.324;2023-03-03T04:36:05;100422.19;;;1.60;83.37
73952;BME280;62304;47.662;18.324;2023-03-03T04:39:08;100423.75;;;1.52;83.56
73952;BME280;62304;47.662;18.324;2023-03-03T04:42:12;100425.31;;;1.67;83.80
73952;BME280;62304;47.662;18.324;2023-03-03T04:45:15;100425.59;;;1.65;83.57
73952;BME280;62304;47.662;18.324;2023-03-03T04:48:18;100413.94;;;1.73;83.83
73952;BME280;62304;47.662;18.324;2023-03-03T04:51:21;100420.03;;;1.70;83.78
73952;BME280;62304;47.662;18.324;2023-03-03T04:54:25;100420.19;;;1.74;84.01
73952;BME280;62304;47.662;18.324;2023-03-03T04:57:29;100414.69;;;1.87;83.51
73952;BME280;62304;47.662;18.324;2023-03-03T05:00:33;100412.41;;;1.67;83.53
73952;BME280;62304;47.662;18.324;2023-03-03T05:03:36;100411.28;;;1.82;83.64
73952;BME280;62304;47.662;18.324;2023-03-03T05:06:39;100403.37;;;1.80;83.28
73952;BME280;62304;47.662;18.324;2023-03-03T05:09:42;100410.22;;;1.69;83.39
73952;BME280;62304;47.662;18.324;2023-03-03T05:12:45;100419.47;;;1.60;83.95
73952;BME280;62304;47.662;18.324;2023-03-03T05:15:52;100410.75;;;1.58;84.48
73952;BME280;62304;47.662;18.324;2023-03-03T05:18:57;100418.81;;;1.63;84.44
73952;BME280;62304;47.662;18.324;2023-03-03T05:22:00;100420.69;;;1.76;83.89
73952;BME280;62304;47.662;18.324;2023-03-03T05:25:04;100411.06;;;1.78;83.25
73952;BME280;62304;47.662;18.324;2023-03-03T05:28:08;100417.72;;;1.64;83.95
73952;BME280;62304;47.662;18.324;2023-03-03T05:31:11;100412.25;;;1.64;84.01
73952;BME280;62304;47.662;18.324;2023-03-03T05:34:14;100415.78;;;1.64;83.97
73952;BME280;62304;47.662;18.324;2023-03-03T05:37:17;100416.50;;;1.56;84.09
73952;BME280;62304;47.662;18.324;2023-03-03T05:40:20;100415.47;;;1.44;84.46
73952;BME280;62304;47.662;18.324;2023-03-03T05:43:23;100415.16;;;1.32;84.19
73952;BME280;62304;47.662;18.324;2023-03-03T05:46:27;100423.28;;;1.23;84.94
73952;BME280;62304;47.662;18.324;2023-03-03T05:49:31;100423.63;;;1.08;86.38
73952;BME280;62304;47.662;18.324;2023-03-03T05:52:34;100430.53;;;1.06;86.81
73952;BME280;62304;47.662;18.324;2023-03-03T05:55:37;100429.78;;;1.14;86.92
73952;BME280;62304;47.662;18.324;2023-03-03T05:58:40;100425.03;;;1.19;86.91
73952;BME280;62304;47.662;18.324;2023-03-03T06:01:43;100423.44;;;1.18;87.07
73952;BME280;62304;47.662;18.324;2023-03-03T06:04:47;100433.31;;;1.28;87.64
73952;BME280;62304;47.662;18.324;2023-03-03T06:07:50;100427.84;;;1.28;86.93
73952;BME280;62304;47.662;18.324;2023-03-03T06:10:53;100435.50;;;1.39;87.01
73952;BME280;62304;47.662;18.324;2023-03-03T06:13:56;100436.50;;;1.43;87.14
73952;BME280;62304;47.662;18.324;2023-03-03T06:16:59;100447.63;;;1.47;86.98
73952;BME280;62304;47.662;18.324;2023-03-03T06:20:03;100441.16;;;1.43;86.78
73952;BME280;62304;47.662;18.324;2023-03-03T06:23:07;100449.69;;;1.41;87.27
73952;BME280;62304;47.662;18.324;2023-03-03T06:26:09;100448.44;;;1.47;88.11
73952;BME280;62304;47.662;18.324;2023-03-03T06:29:12;100464.03;;;1.47;88.45
73952;BME280;62304;47.662;18.324;2023-03-03T06:32:17;100461.09;;;1.43;88.64
73952;BME280;62304;47.662;18.324;2023-03-03T06:35:20;100463.81;;;1.57;88.33
73952;BME280;62304;47.662;18.324;2023-03-03T06:38:23;100481.22;;;1.61;88.45
73952;BME280;62304;47.662;18.324;2023-03-03T06:41:27;100478.03;;;1.67;88.95
73952;BME280;62304;47.662;18.324;2023-03-03T06:44:29;100477.09;;;1.85;88.04
73952;BME280;62304;47.662;18.324;2023-03-03T06:47:33;100472.88;;;2.01;87.40
73952;BME280;62304;47.662;18.324;2023-03-03T06:50:36;100479.31;;;2.27;87.18
73952;BME280;62304;47.662;18.324;2023-03-03T06:53:41;100467.37;;;3.40;85.25
73952;BME280;62304;47.662;18.324;2023-03-03T06:56:44;100466.03;;;4.65;80.97
73952;BME280;62304;47.662;18.324;2023-03-03T06:59:52;100460.41;;;5.49;78.84
73952;BME280;62304;47.662;18.324;2023-03-03T07:02:59;100470.13;;;6.16;76.12
73952;BME280;62304;47.662;18.324;2023-03-03T07:06:17;100473.00;;;7.45;72.59
73952;BME280;62304;47.662;18.324;2023-03-03T07:09:25;100468.44;;;7.88;70.19
73952;BME280;62304;47.662;18.324;2023-03-03T07:12:29;100467.66;;;8.15;69.41
73952;BME280;62304;47.662;18.324;2023-03-03T07:15:35;100468.03;;;8.41;68.79
73952;BME280;62304;47.662;18.324;2023-03-03T07:18:43;100467.41;;;8.75;67.70
73952;BME280;62304;47.662;18.324;2023-03-03T07:21:50;100466.22;;;8.76;66.89
73952;BME280;62304;47.662;18.324;2023-03-03T07:24:57;100472.50;;;8.89;64.67
73952;BME280;62304;47.662;18.324;2023-03-03T07:28:23;100464.72;;;8.94;64.88
73952;BME280;62304;47.662;18.324;2023-03-03T07:31:35;100469.75;;;9.54;65.28
73952;BME280;62304;47.662;18.324;2023-03-03T07:34:43;100472.22;;;9.40;65.10
73952;BME280;62304;47.662;18.324;2023-03-03T07:37:48;100487.22;;;8.22;67.69
73952;BME280;62304;47.662;18.324;2023-03-03T07:40:53;100493.12;;;7.09;71.14
73952;BME280;62304;47.662;18.324;2023-03-03T07:44:04;100491.19;;;6.33;73.09
73952;BME280;62304;47.662;18.324;2023-03-03T07:47:27;100498.56;;;6.08;73.64
73952;BME280;62304;47.662;18.324;2023-03-03T07:50:30;100504.84;;;5.88;74.93
73952;BME280;62304;47.662;18.324;2023-03-03T07:53:34;100492.28;;;5.79;75.26
73952;BME280;62304;47.662;18.324;2023-03-03T07:56:39;100496.22;;;5.69;75.25
73952;BME280;62304;47.662;18.324;2023-03-03T08:00:43;100483.06;;;5.54;75.91
73952;BME280;62304;47.662;18.324;2023-03-03T08:03:24;100488.25;;;5.47;76.40
73952;BME280;62304;47.662;18.324;2023-03-03T08:13:44;100498.37;;;5.35;77.81
73952;BME280;62304;47.662;18.324;2023-03-03T08:16:48;100511.44;;;5.38;78.38
73952;BME280;62304;47.662;18.324;2023-03-03T08:19:52;100503.72;;;5.60;78.16
73952;BME280;62304;47.662;18.324;2023-03-03T08:22:55;100500.97;;;5.60;78.04
73952;BME280;62304;47.662;18.324;2023-03-03T08:25:58;100506.13;;;5.91;76.90
73952;BME280;62304;47.662;18.324;2023-03-03T08:29:01;100508.63;;;6.04;76.15
73952;BME280;62304;47.662;18.324;2023-03-03T08:32:04;100512.63;;;6.27;76.99
73952;BME280;62304;47.662;18.324;2023-03-03T08:35:08;100508.84;;;6.52;75.77
73952;BME280;62304;47.662;18.324;2023-03-03T08:38:14;100513.06;;;6.82;74.43
73952;BME280;62304;47.662;18.324;2023-03-03T08:41:18;100514.69;;;6.95;74.03
73952;BME280;62304;47.662;18.324;2023-03-03T08:44:20;100506.41;;;6.95;74.24
73952;BME280;62304;47.662;18.324;2023-03-03T08:47:24;100512.53;;;7.01;74.05
73952;BME280;62304;47.662;18.324;2023-03-03T08:50:28;100510.22;;;7.15;73.86
73952;BME280;62304;47.662;18.324;2023-03-03T08:53:32;100505.16;;;7.77;72.00
73952;BME280;62304;47.662;18.324;2023-03-03T08:56:38;100513.00;;;8.26;70.97
73952;BME280;62304;47.662;18.324;2023-03-03T08:59:41;100503.06;;;8.65;69.98
73952;BME280;62304;47.662;18.324;2023-03-03T09:02:44;100512.56;;;9.41;67.72
73952;BME280;62304;47.662;18.324;2023-03-03T09:05:48;100509.44;;;10.46;63.67
73952;BME280;62304;47.662;18.324;2023-03-03T09:08:50;100501.28;;;11.62;61.76
73952;BME280;62304;47.662;18.324;2023-03-03T09:11:57;100511.19;;;11.86;58.26
73952;BME280;62304;47.662;18.324;2023-03-03T09:15:39;100502.94;;;12.88;57.44
73952;BME280;62304;47.662;18.324;2023-03-03T09:18:42;100500.16;;;13.68;52.65
73952;BME280;62304;47.662;18.324;2023-03-03T09:21:45;100493.94;;;14.74;53.34
73952;BME280;62304;47.662;18.324;2023-03-03T09:24:52;100498.72;;;14.70;50.47
73952;BME280;62304;47.662;18.324;2023-03-03T09:27:55;100481.63;;;14.96;48.38
73952;BME280;62304;47.662;18.324;2023-03-03T09:31:00;100491.66;;;15.60;49.25
73952;BME280;62304;47.662;18.324;2023-03-03T09:37:23;100475.75;;;16.78;45.57
73952;BME280;62304;47.662;18.324;2023-03-03T09:50:21;100483.69;;;16.90;46.55
73952;BME280;62304;47.662;18.324;2023-03-03T09:56:49;100473.22;;;17.56;43.93
73952;BME280;62304;47.662;18.324;2023-03-03T10:03:43;100475.72;;;17.91;41.64
73952;BME280;62304;47.662;18.324;2023-03-03T10:10:43;100473.47;;;17.72;40.45
73952;BME280;62304;47.662;18.324;2023-03-03T10:17:54;100472.19;;;17.83;41.99
73952;BME280;62304;47.662;18.324;2023-03-03T10:21:10;100466.84;;;19.19;40.85
73952;BME280;62304;47.662;18.324;2023-03-03T10:32:03;100466.97;;;18.19;41.67
73952;BME280;62304;47.662;18.324;2023-03-03T10:38:45;100461.91;;;19.00;40.35
73952;BME280;62304;47.662;18.324;2023-03-03T10:49:03;100453.66;;;16.05;45.22
73952;BME280;62304;47.662;18.324;2023-03-03T10:59:30;100460.09;;;15.74;47.35
73952;BME280;62304;47.662;18.324;2023-03-03T11:06:53;100449.56;;;17.09;43.01
73952;BME280;62304;47.662;18.324;2023-03-03T11:17:11;100444.09;;;15.95;44.61
73952;BME280;62304;47.662;18.324;2023-03-03T11:23:51;100431.69;;;16.89;42.75
73952;BME280;62304;47.662;18.324;2023-03-03T11:27:08;100429.12;;;16.47;43.03
73952;BME280;62304;47.662;18.324;2023-03-03T11:37:43;100403.25;;;17.82;40.05
73952;BME280;62304;47.662;18.324;2023-03-03T11:44:39;100388.88;;;19.88;35.90
73952;BME280;62304;47.662;18.324;2023-03-03T11:47:55;100377.41;;;20.38;35.26
73952;BME280;62304;47.662;18.324;2023-03-03T11:54:33;100380.06;;;20.64;35.05
73952;BME280;62304;47.662;18.324;2023-03-03T11:57:49;100361.38;;;20.35;36.86
73952;BME280;62304;47.662;18.324;2023-03-03T12:04:03;100362.75;;;18.13;38.17
73952;BME280;62304;47.662;18.324;2023-03-03T12:20:07;100364.41;;;17.77;37.02
73952;BME280;62304;47.662;18.324;2023-03-03T12:33:25;100354.03;;;18.91;33.41
73952;BME280;62304;47.662;18.324;2023-03-03T12:46:45;100360.09;;;18.36;33.15
73952;BME280;62304;47.662;18.324;2023-03-03T12:50:44;100348.00;;;18.66;33.00
73952;BME280;62304;47.662;18.324;2023-03-03T12:56:57;100361.38;;;17.98;33.97
73952;BME280;62304;47.662;18.324;2023-03-03T13:03:28;100365.94;;;17.01;34.76
73952;BME280;62304;47.662;18.324;2023-03-03T13:13:15;100347.31;;;16.08;36.00
73952;BME280;62304;47.662;18.324;2023-03-03T13:16:30;100344.78;;;16.42;35.23
73952;BME280;62304;47.662;18.324;2023-03-03T13:19:58;100352.34;;;15.34;36.40
73952;BME280;62304;47.662;18.324;2023-03-03T13:26:42;100341.13;;;14.36;38.13
73952;BME280;62304;47.662;18.324;2023-03-03T13:30:00;100338.34;;;14.40;38.02
73952;BME280;62304;47.662;18.324;2023-03-03T13:36:15;100327.47;;;14.03;39.42
73952;BME280;62304;47.662;18.324;2023-03-03T13:39:26;100323.47;;;14.11;38.75
73952;BME280;62304;47.662;18.324;2023-03-03T13:52:28;100318.25;;;13.14;41.42
73952;BME280;62304;47.662;18.324;2023-03-03T13:55:42;100317.00;;;13.04;41.84
73952;BME280;62304;47.662;18.324;2023-03-03T13:58:57;100310.00;;;13.28;41.60
73952;BME280;62304;47.662;18.324;2023-03-03T14:05:50;100309.91;;;13.17;41.12
73952;BME280;62304;47.662;18.324;2023-03-03T14:09:17;100311.19;;;12.76;42.43
73952;BME280;62304;47.662;18.324;2023-03-03T14:12:50;100316.59;;;12.59;43.39
73952;BME280;62304;47.662;18.324;2023-03-03T14:16:19;100307.03;;;12.56;43.20
73952;BME280;62304;47.662;18.324;2023-03-03T14:19:25;100304.25;;;12.16;43.60
73952;BME280;62304;47.662;18.324;2023-03-03T14:22:45;100311.34;;;12.10;43.25
73952;BME280;62304;47.662;18.324;2023-03-03T14:29:32;100305.03;;;11.80;43.22
73952;BME280;62304;47.662;18.324;2023-03-03T14:32:37;100301.94;;;11.56;44.43
73952;BME280;62304;47.662;18.324;2023-03-03T14:38:59;100309.34;;;11.74;44.98
73952;BME280;62304;47.662;18.324;2023-03-03T14:42:14;100303.16;;;11.88;45.35
73952;BME280;62304;47.662;18.324;2023-03-03T14:48:49;100299.62;;;11.91;44.65
73952;BME280;62304;47.662;18.324;2023-03-03T14:52:01;100294.63;;;11.70;45.29
73952;BME280;62304;47.662;18.324;2023-03-03T14:55:32;100287.31;;;11.59;45.46
73952;BME280;62304;47.662;18.324;2023-03-03T14:58:40;100301.87;;;11.52;46.26
73952;BME280;62304;47.662;18.324;2023-03-03T15:01:44;100298.94;;;11.38;46.97
73952;BME280;62304;47.662;18.324;2023-03-03T15:04:47;100306.00;;;11.32;46.56
73952;BME280;62304;47.662;18.324;2023-03-03T15:08:08;100310.94;;;11.16;46.67
73952;BME280;62304;47.662;18.324;2023-03-03T15:14:22;100298.78;;;10.98;46.32
73952;BME280;62304;47.662;18.324;2023-03-03T15:17:43;100300.63;;;10.91;46.53
73952;BME280;62304;47.662;18.324;2023-03-03T15:21:27;100310.47;;;10.85;46.89
73952;BME280;62304;47.662;18.324;2023-03-03T15:34:48;100304.19;;;10.43;46.80
73952;BME280;62304;47.662;18.324;2023-03-03T15:38:28;100310.56;;;10.43;46.55
73952;BME280;62304;47.662;18.324;2023-03-03T15:41:43;100301.69;;;10.34;46.43
73952;BME280;62304;47.662;18.324;2023-03-03T16:05:42;100307.81;;;9.45;50.26
73952;BME280;62304;47.662;18.324;2023-03-03T16:25:21;100319.72;;;8.45;51.92
73952;BME280;62304;47.662;18.324;2023-03-03T16:32:10;100328.37;;;8.16;54.40
73952;BME280;62304;47.662;18.324;2023-03-03T16:35:35;100332.09;;;8.08;53.28
73952;BME280;62304;47.662;18.324;2023-03-03T16:38:50;100339.06;;;8.02;54.42
73952;BME280;62304;47.662;18.324;2023-03-03T16:45:26;100340.78;;;7.79;54.43
73952;BME280;62304;47.662;18.324;2023-03-03T16:52:12;100342.25;;;7.49;55.92
73952;BME280;62304;47.662;18.324;2023-03-03T16:55:20;100346.84;;;7.45;56.01
73952;BME280;62304;47.662;18.324;2023-03-03T17:08:55;100357.03;;;7.29;57.82
73952;BME280;62304;47.662;18.324;2023-03-03T17:12:04;100371.88;;;7.13;58.89
73952;BME280;62304;47.662;18.324;2023-03-03T17:22:33;100374.62;;;6.65;60.57
73952;BME280;62304;47.662;18.324;2023-03-03T17:43:22;100388.19;;;6.13;61.86
73952;BME280;62304;47.662;18.324;2023-03-03T17:50:01;100398.28;;;5.68;63.85
73952;BME280;62304;47.662;18.324;2023-03-03T17:57:03;100396.06;;;5.41;64.47
73952;BME280;62304;47.662;18.324;2023-03-03T18:00:41;100404.06;;;5.34;64.19
73952;BME280;62304;47.662;18.324;2023-03-03T18:10:41;100409.87;;;5.12;64.71
73952;BME280;62304;47.662;18.324;2023-03-03T18:27:31;100421.28;;;4.56;66.17
73952;BME280;62304;47.662;18.324;2023-03-03T18:30:58;100428.84;;;4.59;65.75
73952;BME280;62304;47.662;18.324;2023-03-03T18:34:30;100429.06;;;4.54;66.21
73952;BME280;62304;47.662;18.324;2023-03-03T18:37:40;100436.50;;;4.45;66.73
73952;BME280;62304;47.662;18.324;2023-03-03T18:41:09;100435.72;;;4.36;66.60
73952;BME280;62304;47.662;18.324;2023-03-03T18:44:29;100437.13;;;4.51;65.79
73952;BME280;62304;47.662;18.324;2023-03-03T18:48:06;100438.00;;;4.34;66.67
73952;BME280;62304;47.662;18.324;2023-03-03T18:54:38;100438.69;;;3.89;68.06
73952;BME280;62304;47.662;18.324;2023-03-03T18:58:03;100435.97;;;3.80;68.50
73952;BME280;62304;47.662;18.324;2023-03-03T19:04:35;100438.53;;;3.51;68.83
73952;BME280;62304;47.662;18.324;2023-03-03T19:10:55;100441.28;;;3.43;68.97
73952;BME280;62304;47.662;18.324;2023-03-03T19:20:40;100443.66;;;3.27;68.97
73952;BME280;62304;47.662;18.324;2023-03-03T19:27:31;100444.41;;;3.02;70.40
73952;BME280;62304;47.662;18.324;2023-03-03T19:30:55;100447.56;;;2.87;72.19
73952;BME280;62304;47.662;18.324;2023-03-03T19:40:45;100453.38;;;2.55;72.27
73952;BME280;62304;47.662;18.324;2023-03-03T19:51:04;100455.94;;;2.52;71.51
73952;BME280;62304;47.662;18.324;2023-03-03T20:01:47;100461.28;;;2.26;72.60
73952;BME280;62304;47.662;18.324;2023-03-03T20:08:53;100461.16;;;2.09;73.78
73952;BME280;62304;47.662;18.324;2023-03-03T20:15:13;100469.72;;;1.94;73.75
73952;BME280;62304;47.662;18.324;2023-03-03T20:18:48;100461.69;;;1.76;74.21
73952;BME280;62304;47.662;18.324;2023-03-03T20:22:08;100465.50;;;1.88;73.58
73952;BME280;62304;47.662;18.324;2023-03-03T20:25:29;100470.50;;;1.86;73.74
73952;BME280;62304;47.662;18.324;2023-03-03T20:32:42;100482.31;;;1.95;73.90
73952;BME280;62304;47.662;18.324;2023-03-03T20:36:18;100478.72;;;2.08;72.74
73952;BME280;62304;47.662;18.324;2023-03-03T20:39:37;100477.31;;;1.75;74.05
73952;BME280;62304;47.662;18.324;2023-03-03T20:43:13;100484.31;;;1.68;73.59
73952;BME280;62304;47.662;18.324;2023-03-03T20:49:45;100482.97;;;1.43;75.06
73952;BME280;62304;47.662;18.324;2023-03-03T20:57:00;100497.63;;;1.47;74.60
73952;BME280;62304;47.662;18.324;2023-03-03T21:03:41;100495.00;;;1.42;74.10
73952;BME280;62304;47.662;18.324;2023-03-03T21:06:46;100494.78;;;1.52;73.34
73952;BME280;62304;47.662;18.324;2023-03-03T21:10:10;100493.59;;;1.45;73.37
73952;BME280;62304;47.662;18.324;2023-03-03T21:13:42;100497.44;;;1.44;73.71
73952;BME280;62304;47.662;18.324;2023-03-03T21:16:47;100495.19;;;1.59;73.16
73952;BME280;62304;47.662;18.324;2023-03-03T21:19:52;100496.56;;;1.70;72.74
73952;BME280;62304;47.662;18.324;2023-03-03T21:22:57;100491.34;;;1.47;73.19
73952;BME280;62304;47.662;18.324;2023-03-03T21:26:01;100485.31;;;1.36;73.33
73952;BME280;62304;47.662;18.324;2023-03-03T21:29:04;100492.00;;;1.30;73.74
73952;BME280;62304;47.662;18.324;2023-03-03T21:32:08;100497.03;;;1.23;73.41
73952;BME280;62304;47.662;18.324;2023-03-03T21:35:18;100494.31;;;1.10;74.43
73952;BME280;62304;47.662;18.324;2023-03-03T21:38:34;100498.50;;;1.07;73.67
73952;BME280;62304;47.662;18.324;2023-03-03T21:45:11;100507.16;;;0.82;76.03
73952;BME280;62304;47.662;18.324;2023-03-03T21:48:14;100510.38;;;0.71;75.64
73952;BME280;62304;47.662;18.324;2023-03-03T21:51:18;100506.78;;;0.75;75.35
73952;BME280;62304;47.662;18.324;2023-03-03T21:54:22;100506.53;;;0.58;76.71
73952;BME280;62304;47.662;18.324;2023-03-03T21:57:27;100512.50;;;0.60;76.37
73952;BME280;62304;47.662;18.324;2023-03-03T22:00:30;100503.72;;;0.63;75.61
73952;BME280;62304;47.662;18.324;2023-03-03T22:03:33;100511.75;;;0.55;75.93
73952;BME280;62304;47.662;18.324;2023-03-03T22:06:36;100512.50;;;0.60;76.13
73952;BME280;62304;47.662;18.324;2023-03-03T22:09:39;100511.87;;;0.50;76.61
73952;BME280;62304;47.662;18.324;2023-03-03T22:12:42;100511.34;;;0.48;75.86
73952;BME280;62304;47.662;18.324;2023-03-03T22:15:46;100516.81;;;0.48;76.31
73952;BME280;62304;47.662;18.324;2023-03-03T22:18:49;100522.22;;;0.34;76.43
73952;BME280;62304;47.662;18.324;2023-03-03T22:21:52;100524.28;;;0.10;76.71
73952;BME280;62304;47.662;18.324;2023-03-03T22:24:55;100517.94;;;-0.04;77.37
73952;BME280;62304;47.662;18.324;2023-03-03T22:27:58;100517.44;;;-0.06;77.98
73952;BME280;62304;47.662;18.324;2023-03-03T22:31:01;100518.19;;;-0.18;78.45
73952;BME280;62304;47.662;18.324;2023-03-03T22:34:04;100518.78;;;-0.22;79.04
73952;BME280;62304;47.662;18.324;2023-03-03T22:37:07;100518.19;;;-0.37;80.07